Time;durP1;ratioP1;P1;durP2;ratioP2;P2;SDS_P1;SDS_P2;PMS_P1;PMS_P2;Temp;Humidity;BMP_temperature;BMP_pressure;BME280_temperature;BME280_humidity;BME280_pressure;Samples;Min_cycle;Max_cycle;Signal;HPM_P1;HPM_P2
2021/03/11 00:19:08;;;;;;;103.65;40.45;;;;;;;-2.01;56.62;100393.00;2098528;83;21194;-70
2021/03/11 00:22:10;;;;;;;90.45;40.52;;;;;;;-2.04;56.90;100372.36;2098039;83;21604;-69
2021/03/11 00:25:14;;;;;;;99.67;41.25;;;;;;;-2.09;57.26;100376.95;2100842;83;21123;-71
2021/03/11 00:28:15;;;;;;;96.50;39.65;;;;;;;-2.12;57.29;100378.42;2094103;83;21175;-69
2021/03/11 00:31:16;;;;;;;96.02;40.23;;;;;;;-2.14;57.07;100372.45;2091414;83;21129;-70
2021/03/11 00:34:18;;;;;;;96.70;42.08;;;;;;;-2.16;57.65;100368.65;2094128;83;21142;-69
2021/03/11 00:37:19;;;;;;;89.70;37.65;;;;;;;-2.19;58.14;100358.87;2098904;82;21135;-70
2021/03/11 00:40:22;;;;;;;95.25;41.55;;;;;;;-2.21;58.14;100358.11;2097852;83;21150;-75
2021/03/11 00:43:24;;;;;;;95.38;39.90;;;;;;;-2.22;58.31;100359.00;2102617;83;21606;-70
2021/03/11 00:46:25;;;;;;;102.80;41.85;;;;;;;-2.23;58.19;100354.73;2103779;83;21166;-69
2021/03/11 00:49:26;;;;;;;101.10;42.90;;;;;;;-2.24;58.42;100343.97;2103482;83;21233;-69
2021/03/11 00:52:28;;;;;;;103.47;41.73;;;;;;;-2.25;58.35;100336.64;2096496;83;21186;-72
2021/03/11 00:55:29;;;;;;;100.53;41.88;;;;;;;-2.27;58.45;100340.60;2101348;83;21148;-69
2021/03/11 00:58:32;;;;;;;105.55;43.90;;;;;;;-2.24;58.27;100327.08;2102256;83;21224;-69
2021/03/11 01:01:34;;;;;;;101.02;41.77;;;;;;;-2.26;58.50;100314.98;2095212;83;21086;-73
2021/03/11 01:04:36;;;;;;;100.35;41.30;;;;;;;-2.27;58.71;100327.60;2095221;83;21137;-69
2021/03/11 01:07:38;;;;;;;96.25;41.73;;;;;;;-2.28;58.81;100316.84;2095836;83;21567;-69
2021/03/11 01:10:40;;;;;;;92.10;38.35;;;;;;;-2.29;58.82;100315.14;2101168;82;21127;-75
2021/03/11 01:13:41;;;;;;;89.15;38.70;;;;;;;-2.30;58.61;100296.58;2095996;83;21175;-69
2021/03/11 01:16:47;;;;;;;90.20;39.48;;;;;;;-2.26;58.56;100287.68;2095531;84;21136;-71
2021/03/11 01:19:49;;;;;;;90.03;39.83;;;;;;;-2.23;58.49;100289.75;2086298;84;21789;-69
2021/03/11 01:22:50;;;;;;;98.50;40.52;;;;;;;-2.23;58.86;100287.14;2073311;83;21162;-69
2021/03/11 01:25:51;;;;;;;95.92;41.53;;;;;;;-2.27;58.72;100288.61;2095603;83;21586;-72
2021/03/11 01:28:52;;;;;;;95.60;41.30;;;;;;;-2.27;58.84;100287.31;2095284;83;21185;-69
2021/03/11 01:31:54;;;;;;;100.45;41.13;;;;;;;-2.28;59.06;100271.78;2087367;83;21505;-70
2021/03/11 01:34:55;;;;;;;97.17;38.85;;;;;;;-2.30;59.03;100276.25;2087313;83;21262;-69
2021/03/11 01:37:57;;;;;;;87.80;40.67;;;;;;;-2.29;59.09;100268.81;2096582;83;21170;-69
2021/03/11 01:40:58;;;;;;;94.17;41.08;;;;;;;-2.28;58.82;100270.48;2103964;83;21563;-69
2021/03/11 01:44:00;;;;;;;94.90;41.33;;;;;;;-2.26;58.70;100262.98;2103120;83;21224;-68
2021/03/11 01:47:01;;;;;;;84.65;36.83;;;;;;;-2.27;58.74;100261.32;2089745;83;21203;-68
2021/03/11 01:50:08;;;;;;;100.87;41.45;;;;;;;-2.26;58.78;100258.25;2104511;83;21171;-74
2021/03/11 01:53:10;;;;;;;88.95;39.78;;;;;;;-2.26;58.97;100257.78;2101398;83;21587;-69
2021/03/11 01:56:11;;;;;;;89.15;40.20;;;;;;;-2.27;58.77;100250.09;2098729;83;21177;-69
2021/03/11 01:59:13;;;;;;;91.60;39.38;;;;;;;-2.27;58.79;100247.02;2080325;83;21134;-69
2021/03/11 02:02:17;;;;;;;91.10;42.23;;;;;;;-2.29;59.09;100235.86;2097087;83;21103;-69
2021/03/11 02:05:20;;;;;;;95.85;42.05;;;;;;;-2.30;59.30;100232.89;2098475;84;21135;-69
2021/03/11 02:08:21;;;;;;;111.62;41.20;;;;;;;-2.31;59.28;100213.47;2099474;82;21127;-70
2021/03/11 02:11:27;;;;;;;87.97;40.45;;;;;;;-2.33;59.46;100210.97;2096654;83;21541;-69
2021/03/11 02:14:48;;;;;;;88.85;39.65;;;;;;;-2.36;59.82;100204.64;2101244;83;21133;-70
2021/03/11 02:18:16;;;;;;;92.82;40.25;;;;;;;-2.39;59.67;100207.41;2085557;83;21145;-68
2021/03/11 02:21:44;;;;;;;91.55;39.60;;;;;;;-2.41;59.84;100203.20;2029066;85;21152;-75
2021/03/11 02:25:06;;;;;;;87.80;40.15;;;;;;;-2.43;59.69;100195.94;2025019;84;21200;-68
2021/03/11 02:28:57;;;;;;;91.00;39.63;;;;;;;-2.44;59.73;100187.78;2052638;84;21521;-71
2021/03/11 02:32:01;;;;;;;94.67;41.42;;;;;;;-2.44;59.80;100174.32;2032054;84;21216;-74
2021/03/11 02:35:06;;;;;;;85.30;39.83;;;;;;;-2.42;59.79;100192.41;2031510;84;21168;-69
2021/03/11 02:38:11;;;;;;;88.50;39.90;;;;;;;-2.41;59.49;100188.91;2053843;84;21186;-72
2021/03/11 02:41:15;;;;;;;94.15;39.67;;;;;;;-2.41;59.78;100194.94;2056502;84;21192;-75
2021/03/11 02:44:18;;;;;;;88.87;40.28;;;;;;;-2.47;59.75;100173.19;2056453;84;21212;-69
2021/03/11 02:47:19;;;;;;;84.97;36.48;;;;;;;-2.43;59.89;100180.35;2053763;84;21221;-69
2021/03/11 02:50:21;;;;;;;83.70;37.40;;;;;;;-2.45;60.19;100171.33;2053965;84;21122;-76
2021/03/11 02:53:23;;;;;;;89.50;38.45;;;;;;;-2.42;59.83;100162.53;2057587;84;21645;-70
2021/03/11 02:56:25;;;;;;;87.22;39.53;;;;;;;-2.41;60.06;100170.72;2057718;84;21164;-69
2021/03/11 02:59:29;;;;;;;92.62;39.25;;;;;;;-2.41;60.09;100163.76;2052913;84;21182;-71
2021/03/11 03:02:34;;;;;;;89.07;39.15;;;;;;;-2.40;59.90;100166.72;2057290;84;21205;-67
2021/03/11 03:05:36;;;;;;;100.22;39.55;;;;;;;-2.39;59.87;100163.22;2051380;84;21555;-69
2021/03/11 03:08:41;;;;;;;81.47;38.60;;;;;;;-2.38;60.07;100160.16;2058929;84;21145;-68
2021/03/11 03:11:43;;;;;;;83.67;36.60;;;;;;;-2.39;60.15;100149.36;2055271;84;21306;-72
2021/03/11 03:14:51;;;;;;;78.45;36.75;;;;;;;-2.39;60.05;100145.03;2033518;84;21116;-68
2021/03/11 03:17:53;;;;;;;74.92;36.28;;;;;;;-2.39;60.30;100138.53;2059035;83;21116;-70
2021/03/11 03:20:57;;;;;;;76.95;36.88;;;;;;;-2.37;60.20;100136.66;2108289;83;21162;-68
2021/03/11 03:24:01;;;;;;;82.65;37.05;;;;;;;-2.35;59.90;100140.03;2114236;83;21208;-69
2021/03/11 03:27:02;;;;;;;78.55;36.28;;;;;;;-2.33;59.92;100138.19;2111094;83;21101;-69
2021/03/11 03:30:17;;;;;;;83.05;36.65;;;;;;;-2.32;59.96;100133.36;2109136;83;22599;-69
2021/03/11 03:33:18;;;;;;;77.30;36.88;;;;;;;-2.32;59.97;100129.46;2050582;85;21176;-71
2021/03/11 03:36:20;;;;;;;77.92;35.08;;;;;;;-2.32;59.86;100113.87;2114492;83;21115;-68
2021/03/11 03:39:21;;;;;;;75.15;35.35;;;;;;;-2.33;59.91;100112.20;2109343;83;21645;-70
2021/03/11 03:42:25;;;;;;;82.15;35.40;;;;;;;-2.34;59.86;100105.31;2108551;83;21221;-68
2021/03/11 03:45:29;;;;;;;72.82;34.13;;;;;;;-2.33;60.02;100102.27;2108961;83;21230;-68
2021/03/11 03:48:42;;;;;;;79.45;35.58;;;;;;;-2.33;59.87;100090.11;2112950;83;21149;-67
2021/03/11 03:51:48;;;;;;;74.62;34.83;;;;;;;-2.33;59.86;100086.21;2104733;83;21195;-69
2021/03/11 03:54:51;;;;;;;71.40;34.88;;;;;;;-2.32;59.92;100082.67;2108358;83;21194;-71
2021/03/11 03:57:56;;;;;;;76.72;32.78;;;;;;;-2.28;60.02;100080.73;2090142;83;21177;-70
2021/03/11 04:00:58;;;;;;;70.47;33.38;;;;;;;-2.26;59.75;100083.63;2110858;83;21190;-71
2021/03/11 04:04:03;;;;;;;74.82;34.30;;;;;;;-2.23;59.77;100071.39;2110375;83;21121;-69
2021/03/11 04:07:09;;;;;;;77.45;34.53;;;;;;;-2.23;59.70;100065.72;2113252;82;21117;-69
2021/03/11 04:10:11;;;;;;;77.82;32.40;;;;;;;-2.20;59.35;100068.15;2112903;83;21518;-69
2021/03/11 04:13:13;;;;;;;68.60;32.63;;;;;;;-2.17;59.53;100068.44;2114313;83;21178;-69
2021/03/11 04:16:16;;;;;;;75.22;34.43;;;;;;;-2.14;59.20;100061.77;2114637;82;21138;-75
2021/03/11 04:19:19;;;;;;;72.20;33.70;;;;;;;-2.13;59.13;100051.77;2072687;83;21214;-70
2021/03/11 04:22:20;;;;;;;71.57;31.70;;;;;;;-2.11;59.00;100039.48;2030223;85;21701;-69
2021/03/11 04:25:23;;;;;;;75.65;33.83;;;;;;;-2.09;58.82;100033.28;2010976;86;21199;-69
2021/03/11 04:28:25;;;;;;;70.95;33.25;;;;;;;-2.05;58.89;100021.79;2036352;84;21151;-75
2021/03/11 04:31:27;;;;;;;76.00;34.10;;;;;;;-2.02;58.84;100011.68;2060144;85;21320;-70
2021/03/11 04:34:29;;;;;;;68.30;32.67;;;;;;;-2.00;58.78;100005.91;2052253;84;21159;-71
2021/03/11 04:37:31;;;;;;;76.42;31.70;;;;;;;-1.97;58.44;99995.34;2050690;85;21183;-70
2021/03/11 04:40:33;;;;;;;77.35;34.50;;;;;;;-1.95;58.53;99984.37;2048944;84;21124;-70
2021/03/11 04:43:35;;;;;;;69.92;33.25;;;;;;;-1.94;58.38;99996.47;2054398;84;21618;-70
2021/03/11 04:46:38;;;;;;;76.55;33.65;;;;;;;-1.92;58.44;99985.95;2055437;85;21176;-70
2021/03/11 04:49:42;;;;;;;73.15;31.85;;;;;;;-1.94;58.56;99980.86;2053246;85;21222;-69
2021/03/11 04:52:44;;;;;;;81.60;33.20;;;;;;;-1.94;58.44;99983.91;2052000;84;21111;-69
2021/03/11 04:55:46;;;;;;;73.62;33.53;;;;;;;-1.93;58.16;99977.32;2059985;85;21185;-69
2021/03/11 04:58:49;;;;;;;75.50;34.78;;;;;;;-1.94;58.54;99973.50;2028867;85;21096;-71
2021/03/11 05:01:54;;;;;;;81.87;34.40;;;;;;;-1.95;58.60;99971.37;2031783;85;21164;-69
2021/03/11 05:04:56;;;;;;;74.45;34.80;;;;;;;-1.98;58.70;99961.62;2048427;85;21807;-69
2021/03/11 05:07:57;;;;;;;78.02;35.85;;;;;;;-1.98;58.67;99968.95;2028469;85;21595;-70
2021/03/11 05:10:59;;;;;;;75.78;34.45;;;;;;;-1.97;58.66;99965.88;2053649;84;21124;-70
2021/03/11 05:14:00;;;;;;;80.50;35.73;;;;;;;-1.98;58.37;99955.95;2053272;85;21127;-71
2021/03/11 05:17:01;;;;;;;76.33;35.55;;;;;;;-1.97;58.68;99962.84;2052775;84;21113;-69
2021/03/11 05:20:03;;;;;;;79.42;35.23;;;;;;;-1.97;58.99;99947.23;2091900;83;21330;-69
2021/03/11 05:23:05;;;;;;;78.70;34.98;;;;;;;-1.99;58.79;99936.08;2097488;83;21182;-68
2021/03/11 05:26:06;;;;;;;76.97;35.58;;;;;;;-1.98;59.03;99941.64;2100322;83;21127;-69
2021/03/11 05:29:08;;;;;;;81.50;36.85;;;;;;;-1.98;58.97;99933.02;2095551;83;21159;-71
2021/03/11 05:32:09;;;;;;;82.35;35.73;;;;;;;-1.99;59.14;99926.98;2095853;83;21163;-70
2021/03/11 05:35:10;;;;;;;85.35;35.10;;;;;;;-2.00;59.21;99918.79;2103503;83;21535;-69
2021/03/11 05:38:12;;;;;;;76.12;33.63;;;;;;;-1.97;59.07;99923.84;2101894;83;22213;-68
2021/03/11 05:41:14;;;;;;;75.57;33.75;;;;;;;-1.97;59.14;99920.38;2097230;83;21194;-69
2021/03/11 05:44:16;;;;;;;75.17;35.38;;;;;;;-1.96;59.04;99921.59;2096615;82;21133;-71
2021/03/11 05:47:19;;;;;;;77.37;36.08;;;;;;;-1.93;59.17;99900.61;2096487;83;21097;-71
2021/03/11 05:50:21;;;;;;;83.10;36.85;;;;;;;-1.91;59.11;99904.42;2096601;83;21562;-73
2021/03/11 05:53:23;;;;;;;88.97;38.08;;;;;;;-1.90;59.41;99890.02;2094478;83;21152;-70
2021/03/11 05:56:25;;;;;;;79.90;36.75;;;;;;;-1.88;59.23;99879.53;2099947;83;21198;-72
2021/03/11 05:59:27;;;;;;;82.42;38.25;;;;;;;-1.87;59.05;99873.39;2097986;83;21182;-72
2021/03/11 06:02:29;;;;;;;83.92;38.65;;;;;;;-1.86;59.10;99868.11;2098357;83;21177;-71
2021/03/11 06:05:31;;;;;;;89.97;40.33;;;;;;;-1.83;59.10;99854.05;2096441;83;21127;-75
2021/03/11 06:08:34;;;;;;;89.13;39.08;;;;;;;-1.83;59.13;99853.61;2097467;83;21581;-74
2021/03/11 06:11:39;;;;;;;90.12;38.80;;;;;;;-1.81;59.25;99853.03;2097935;83;21132;-70
2021/03/11 06:14:46;;;;;;;87.05;39.08;;;;;;;-1.78;59.48;99840.77;2098309;83;21245;-68
2021/03/11 06:17:49;;;;;;;83.30;40.10;;;;;;;-1.75;59.48;99836.68;2100815;82;21587;-74
2021/03/11 06:20:51;;;;;;;81.40;36.77;;;;;;;-1.72;59.50;99828.69;2099530;83;21161;-71
2021/03/11 06:23:52;;;;;;;90.22;40.63;;;;;;;-1.71;59.59;99827.30;2100770;83;21676;-74
2021/03/11 06:26:54;;;;;;;93.03;37.85;;;;;;;-1.69;59.51;99825.89;2101599;83;22678;-72
2021/03/11 06:29:57;;;;;;;91.53;39.33;;;;;;;-1.66;59.65;99830.89;2103051;82;21179;-71
2021/03/11 06:33:00;;;;;;;88.03;40.38;;;;;;;-1.61;59.49;99828.38;2101298;83;21759;-72
2021/03/11 06:36:12;;;;;;;79.85;37.78;;;;;;;-1.56;59.55;99828.09;2103427;82;21549;-71
2021/03/11 06:39:29;;;;;;;85.12;39.67;;;;;;;-1.50;59.30;99812.09;2094625;83;21129;-75
2021/03/11 06:42:32;;;;;;;87.15;39.15;;;;;;;-1.43;59.47;99798.24;2102381;83;21234;-73
2021/03/11 06:45:34;;;;;;;86.57;38.90;;;;;;;-1.36;58.81;99792.52;2102635;83;21117;-74
2021/03/11 06:48:36;;;;;;;82.50;37.63;;;;;;;-1.30;59.16;99788.69;2096636;82;21147;-77
2021/03/11 06:51:38;;;;;;;77.15;36.42;;;;;;;-1.23;59.07;99802.16;2079505;83;21105;-77
2021/03/11 06:55:03;;;;;;;84.83;36.95;;;;;;;-1.16;58.67;99789.92;2093647;83;21224;-72
2021/03/11 06:58:26;;;;;;;77.78;35.00;;;;;;;-1.10;58.75;99783.48;2102110;83;21646;-73
2021/03/11 07:01:32;;;;;;;79.15;35.15;;;;;;;-1.03;58.39;99783.46;2097278;83;21118;-78
2021/03/11 07:04:34;;;;;;;80.60;37.53;;;;;;;-0.93;58.35;99788.88;2103991;82;21665;-75
2021/03/11 07:07:35;;;;;;;80.53;36.20;;;;;;;-0.85;58.12;99775.36;2101409;83;21190;-73
2021/03/11 07:10:37;;;;;;;80.25;36.98;;;;;;;-0.80;58.13;99777.19;2090779;83;21198;-71
2021/03/11 07:13:43;;;;;;;76.87;33.92;;;;;;;-0.74;58.07;99772.87;2100495;83;21488;-73
2021/03/11 07:16:44;;;;;;;78.72;35.35;;;;;;;-0.66;57.69;99763.23;2095349;83;21080;-72
2021/03/11 07:20:10;;;;;;;78.83;36.75;;;;;;;-0.65;57.59;99740.14;2097519;83;21240;-72
2021/03/11 07:23:20;;;;;;;80.07;35.40;;;;;;;-0.58;57.15;99739.63;2098109;83;21600;-72
2021/03/11 07:26:20;;;;;;;81.15;34.38;;;;;;;-0.53;57.52;99749.27;2095331;83;21151;-71
2021/03/11 07:29:21;;;;;;;63.95;31.20;;;;;;;-0.49;57.05;99744.67;2105108;83;21151;-75
2021/03/11 07:32:23;;;;;;;61.65;31.12;;;;;;;-0.45;57.04;99730.51;2098244;83;21180;-72
2021/03/11 07:35:31;;;;;;;70.55;33.67;;;;;;;-0.41;56.65;99715.00;2095563;83;21217;-74
2021/03/11 07:38:35;;;;;;;65.55;31.45;;;;;;;-0.32;57.10;99720.05;2079514;83;21161;-72
2021/03/11 07:41:36;;;;;;;66.57;31.25;;;;;;;-0.24;56.60;99714.66;2094161;83;21138;-72
2021/03/11 07:44:38;;;;;;;65.55;30.40;;;;;;;-0.15;56.39;99707.12;2077361;83;21195;-74
2021/03/11 07:47:41;;;;;;;62.00;30.90;;;;;;;-0.12;56.24;99705.13;2098104;83;21214;-73
2021/03/11 07:50:44;;;;;;;60.88;30.95;;;;;;;-0.07;56.29;99696.98;2101302;82;21103;-73
2021/03/11 07:53:46;;;;;;;61.65;31.55;;;;;;;-0.02;56.51;99687.06;2098965;83;21658;-74
2021/03/11 07:56:52;;;;;;;60.88;28.98;;;;;;;0.01;56.27;99693.84;2098952;83;21672;-73
2021/03/11 07:59:54;;;;;;;57.15;27.20;;;;;;;0.04;55.92;99672.75;2102941;83;21177;-73
2021/03/11 08:03:09;;;;;;;67.35;30.62;;;;;;;0.07;56.35;99670.75;2100412;83;21163;-75
2021/03/11 08:06:25;;;;;;;60.03;30.05;;;;;;;0.09;56.09;99651.08;2097943;83;21162;-76
2021/03/11 08:09:40;;;;;;;60.08;29.18;;;;;;;0.12;55.97;99663.42;2099691;83;21182;-73
2021/03/11 08:12:42;;;;;;;61.55;29.57;;;;;;;0.18;55.58;99647.80;2093764;83;21163;-73
2021/03/11 08:15:43;;;;;;;59.15;28.77;;;;;;;0.24;55.47;99645.21;2094358;83;21303;-73
2021/03/11 08:18:46;;;;;;;58.20;29.55;;;;;;;0.29;55.69;99633.48;2097326;83;21193;-73
2021/03/11 08:21:48;;;;;;;53.02;25.95;;;;;;;0.37;56.00;99643.37;2081968;83;21166;-77
2021/03/11 08:24:49;;;;;;;49.58;26.52;;;;;;;0.48;55.96;99636.03;2097069;83;21488;-74
2021/03/11 08:27:52;;;;;;;49.98;26.15;;;;;;;0.58;55.62;99622.17;2093657;83;21183;-73
2021/03/11 08:30:56;;;;;;;48.15;25.12;;;;;;;0.65;55.70;99623.88;2092627;83;21171;-76
2021/03/11 08:33:57;;;;;;;55.40;28.12;;;;;;;0.71;55.88;99615.57;2092251;83;21090;-71
2021/03/11 08:37:18;;;;;;;49.20;25.95;;;;;;;0.76;55.89;99603.00;2098167;83;21159;-73
2021/03/11 08:40:39;;;;;;;49.55;27.10;;;;;;;0.76;55.60;99595.62;2090051;83;21245;-72
2021/03/11 08:43:46;;;;;;;49.93;25.48;;;;;;;0.81;56.07;99586.96;2109390;83;21559;-75
2021/03/11 08:46:51;;;;;;;50.60;26.87;;;;;;;0.86;55.60;99579.13;2103442;83;21157;-74
2021/03/11 08:49:52;;;;;;;49.42;25.95;;;;;;;0.92;56.36;99573.91;2090549;83;21162;-74
2021/03/11 08:52:53;;;;;;;55.33;26.93;;;;;;;0.99;56.11;99573.80;2096182;83;21183;-74
2021/03/11 08:55:55;;;;;;;47.45;26.45;;;;;;;1.05;56.12;99565.97;2079924;83;21637;-75
2021/03/11 08:58:59;;;;;;;54.08;27.75;;;;;;;1.12;56.23;99556.68;2094419;83;21157;-74
2021/03/11 09:02:07;;;;;;;50.12;26.00;;;;;;;1.17;56.50;99545.39;2094315;83;21207;-75
2021/03/11 09:05:13;;;;;;;47.30;24.32;;;;;;;1.24;56.66;99532.66;2100684;83;21968;-76
2021/03/11 09:08:15;;;;;;;44.93;24.10;;;;;;;1.29;56.96;99520.89;2057977;83;21143;-75
2021/03/11 09:11:23;;;;;;;43.92;24.35;;;;;;;1.40;56.92;99521.34;2098674;83;21529;-75
2021/03/11 09:14:26;;;;;;;44.03;24.72;;;;;;;1.50;56.96;99508.39;2097880;83;21150;-71
2021/03/11 09:17:30;;;;;;;49.45;23.07;;;;;;;1.56;57.24;99506.09;2101177;83;21111;-73
2021/03/11 09:20:32;;;;;;;47.45;23.67;;;;;;;1.65;57.54;99502.38;2099593;83;22296;-75
2021/03/11 09:23:41;;;;;;;50.12;25.55;;;;;;;1.71;57.54;99487.49;2102037;83;21098;-73
2021/03/11 09:26:43;;;;;;;39.40;23.18;;;;;;;1.74;57.54;99472.85;2102610;83;21163;-77
2021/03/11 09:29:49;;;;;;;44.03;23.27;;;;;;;1.77;57.52;99479.14;2100387;83;21228;-72
2021/03/11 09:32:51;;;;;;;38.25;22.22;;;;;;;1.80;57.92;99468.42;2098371;83;21241;-73
2021/03/11 09:35:53;;;;;;;40.45;22.87;;;;;;;1.85;57.93;99474.11;2094794;83;21534;-74
2021/03/11 09:39:07;;;;;;;41.25;21.85;;;;;;;1.94;57.78;99453.74;2091333;83;21118;-74
2021/03/11 09:42:09;;;;;;;43.20;22.73;;;;;;;2.02;57.91;99451.77;2099059;83;21141;-74
2021/03/11 09:45:12;;;;;;;36.25;21.20;;;;;;;2.09;58.07;99453.42;2098323;83;21179;-78
2021/03/11 09:48:22;;;;;;;42.93;22.05;;;;;;;2.17;57.93;99424.33;2102374;83;21131;-76
2021/03/11 09:51:32;;;;;;;37.23;20.72;;;;;;;2.28;58.19;99416.02;2098569;83;21581;-70
2021/03/11 09:54:35;;;;;;;41.13;21.48;;;;;;;2.39;58.22;99412.86;2102637;83;21100;-72
2021/03/11 09:57:36;;;;;;;36.85;21.90;;;;;;;2.47;57.96;99401.22;2074959;83;21485;-72
2021/03/11 10:00:38;;;;;;;36.15;21.62;;;;;;;2.58;58.09;99400.30;2098259;83;21222;-73
2021/03/11 10:03:40;;;;;;;37.05;21.33;;;;;;;2.69;57.97;99385.78;2102272;83;21177;-73
2021/03/11 10:06:54;;;;;;;38.23;21.97;;;;;;;2.78;57.96;99400.35;2093887;83;21077;-73
2021/03/11 10:09:56;;;;;;;37.50;22.35;;;;;;;2.80;58.11;99388.78;2102240;83;21137;-71
2021/03/11 10:12:57;;;;;;;40.00;21.90;;;;;;;2.79;58.35;99387.13;2061228;84;21119;-78
2021/03/11 10:15:59;;;;;;;38.88;22.17;;;;;;;2.77;58.88;99381.68;2099673;83;21185;-74
2021/03/11 10:19:16;;;;;;;44.10;22.52;;;;;;;2.71;59.45;99394.02;2098247;83;21091;-74
2021/03/11 10:22:22;;;;;;;36.68;21.48;;;;;;;2.68;59.86;99394.62;2092740;83;21692;-75
2021/03/11 10:25:23;;;;;;;35.90;20.88;;;;;;;2.67;60.67;99370.67;2092117;83;21171;-77
2021/03/11 10:28:28;;;;;;;34.73;20.70;;;;;;;2.75;60.39;99366.56;2096245;83;21133;-74
2021/03/11 10:31:29;;;;;;;38.40;22.52;;;;;;;2.83;60.41;99366.72;2093094;83;21147;-78
2021/03/11 10:34:49;;;;;;;36.38;20.85;;;;;;;2.95;60.09;99368.25;2065562;84;21163;-72
2021/03/11 10:37:50;;;;;;;38.33;20.72;;;;;;;3.08;59.80;99361.44;2093952;83;21147;-74
2021/03/11 10:40:56;;;;;;;40.65;22.22;;;;;;;3.25;59.32;99350.27;2094359;83;21182;-77
2021/03/11 10:44:11;;;;;;;38.75;22.10;;;;;;;3.38;59.25;99352.61;2089938;83;21312;-74
2021/03/11 10:47:16;;;;;;;36.88;21.40;;;;;;;3.48;59.18;99353.41;2084036;83;21225;-78
2021/03/11 10:50:22;;;;;;;36.03;20.72;;;;;;;3.51;58.92;99353.13;2090405;83;21483;-75
2021/03/11 10:53:39;;;;;;;37.95;20.57;;;;;;;3.52;59.16;99345.63;2088138;83;21112;-76
2021/03/11 10:56:46;;;;;;;37.83;20.85;;;;;;;3.51;59.43;99337.39;2087839;83;21088;-74
2021/03/11 10:59:58;;;;;;;38.95;21.27;;;;;;;3.50;59.77;99338.37;2080918;83;21614;-74
2021/03/11 11:03:02;;;;;;;37.55;21.65;;;;;;;3.51;59.76;99340.02;2089375;83;21227;-74
2021/03/11 11:06:08;;;;;;;40.78;22.30;;;;;;;3.45;59.73;99330.09;2088123;83;21162;-73
2021/03/11 11:09:09;;;;;;;38.53;21.68;;;;;;;3.38;59.77;99315.91;2087950;83;21101;-73
2021/03/11 11:12:14;;;;;;;36.25;20.15;;;;;;;3.36;59.96;99312.58;2090478;83;21588;-74
2021/03/11 11:15:17;;;;;;;37.50;21.10;;;;;;;3.36;59.86;99300.30;2085848;83;21231;-73
2021/03/11 11:18:21;;;;;;;33.23;20.62;;;;;;;3.36;60.18;99293.73;2090179;83;21153;-76
2021/03/11 11:21:27;;;;;;;37.83;20.05;;;;;;;3.37;60.02;99286.69;2087589;83;21111;-73
2021/03/11 11:24:27;;;;;;;31.48;19.05;;;;;;;3.40;60.41;99295.59;2089788;83;21144;-74
2021/03/11 11:27:28;;;;;;;34.75;20.02;;;;;;;3.42;60.57;99285.80;2086314;83;21211;-75
2021/03/11 11:30:29;;;;;;;36.85;19.70;;;;;;;3.39;61.22;99266.41;2090651;83;21187;-77
2021/03/11 11:33:31;;;;;;;33.75;19.52;;;;;;;3.37;60.97;99265.22;2092446;83;21151;-74
2021/03/11 11:36:32;;;;;;;32.23;18.67;;;;;;;3.36;61.35;99261.45;2086881;83;21342;-76
2021/03/11 11:39:34;;;;;;;34.30;19.25;;;;;;;3.34;60.99;99248.95;2092545;83;21131;-74
2021/03/11 11:42:35;;;;;;;32.78;19.57;;;;;;;3.29;60.92;99249.37;2088656;83;21148;-74
2021/03/11 11:45:38;;;;;;;31.82;18.90;;;;;;;3.25;61.15;99233.59;2087230;83;21167;-75
2021/03/11 11:48:40;;;;;;;37.63;21.35;;;;;;;3.22;61.11;99231.73;2093896;83;21792;-74
2021/03/11 11:51:41;;;;;;;34.65;19.48;;;;;;;3.20;61.26;99237.60;2087846;83;21166;-74
2021/03/11 11:54:42;;;;;;;31.90;19.12;;;;;;;3.14;60.96;99216.22;2087220;82;22036;-74
2021/03/11 11:57:44;;;;;;;36.88;20.23;;;;;;;3.10;60.98;99211.42;2088524;83;21107;-75
2021/03/11 12:00:46;;;;;;;41.60;20.62;;;;;;;3.08;60.81;99202.38;2088879;83;21096;-76
2021/03/11 12:03:47;;;;;;;37.42;20.85;;;;;;;3.07;60.38;99185.00;2086860;83;21123;-76
2021/03/11 12:06:51;;;;;;;34.20;21.30;;;;;;;3.10;60.38;99163.75;2069418;83;21180;-76
2021/03/11 12:09:53;;;;;;;36.83;22.10;;;;;;;3.16;60.26;99160.22;2087635;83;21170;-76
2021/03/11 12:12:54;;;;;;;40.38;21.60;;;;;;;3.21;60.20;99152.73;2085952;83;21152;-77
2021/03/11 12:15:56;;;;;;;35.98;21.97;;;;;;;3.27;59.95;99164.80;2096833;83;21144;-78
2021/03/11 12:18:57;;;;;;;37.30;22.32;;;;;;;3.32;59.98;99152.55;2091452;83;21163;-77
2021/03/11 12:21:58;;;;;;;38.75;21.62;;;;;;;3.37;59.72;99153.77;2086848;83;21218;-78
2021/03/11 12:25:00;;;;;;;36.17;22.50;;;;;;;3.45;59.65;99150.92;2091462;83;21181;-75
2021/03/11 12:28:03;;;;;;;31.23;20.00;;;;;;;3.53;59.71;99144.48;2092546;83;21117;-75
2021/03/11 12:31:04;;;;;;;37.35;20.45;;;;;;;3.56;59.08;99125.33;2068892;84;21156;-75
2021/03/11 12:34:06;;;;;;;35.10;20.57;;;;;;;3.59;58.70;99097.48;2089442;83;21119;-75
2021/03/11 12:37:07;;;;;;;35.40;22.13;;;;;;;3.61;59.05;99121.45;2091140;83;21200;-77
2021/03/11 12:40:13;;;;;;;34.65;20.75;;;;;;;3.63;59.18;99129.98;2088410;83;21172;-79
2021/03/11 12:43:15;;;;;;;35.92;20.88;;;;;;;3.64;58.92;99111.48;2086509;83;21088;-76
2021/03/11 12:46:16;;;;;;;36.77;21.15;;;;;;;3.62;58.65;99115.23;2092296;83;21123;-76
2021/03/11 12:49:17;;;;;;;39.30;22.20;;;;;;;3.59;59.01;99111.92;2091899;83;21175;-76
2021/03/11 12:52:19;;;;;;;42.33;22.07;;;;;;;3.58;59.29;99101.09;2091821;83;21143;-79
2021/03/11 12:55:20;;;;;;;49.50;22.07;;;;;;;3.62;59.26;99109.49;2093268;83;21199;-72
2021/03/11 12:58:21;;;;;;;34.23;20.68;;;;;;;3.56;60.28;99124.51;2088062;83;21077;-72
2021/03/11 13:01:23;;;;;;;36.73;22.60;;;;;;;3.42;61.23;99119.26;2092478;83;21172;-77
2021/03/11 13:04:24;;;;;;;43.45;24.27;;;;;;;3.27;62.43;99115.48;2086770;83;21065;-77
2021/03/11 13:07:26;;;;;;;42.55;22.07;;;;;;;3.14;63.39;99112.67;2091387;83;21211;-77
2021/03/11 13:10:27;;;;;;;35.80;22.70;;;;;;;3.05;64.07;99100.44;2089737;83;21140;-77
2021/03/11 13:13:29;;;;;;;41.85;23.18;;;;;;;3.04;64.61;99096.18;2090923;83;21216;-77
2021/03/11 13:16:30;;;;;;;43.05;23.85;;;;;;;2.98;65.54;99093.28;2088158;83;21489;-77
2021/03/11 13:19:32;;;;;;;41.33;22.95;;;;;;;2.90;65.62;99087.44;2090500;82;21093;-76
2021/03/11 13:22:33;;;;;;;46.80;26.15;;;;;;;2.79;66.14;99075.36;2092890;83;21177;-76
2021/03/11 13:25:35;;;;;;;39.73;23.62;;;;;;;2.69;66.54;99090.27;2095970;83;21172;-76
2021/03/11 13:28:36;;;;;;;39.65;23.85;;;;;;;2.60;66.38;99090.62;2097292;82;21153;-75
2021/03/11 13:31:38;;;;;;;48.83;24.98;;;;;;;2.53;66.81;99097.38;2095966;82;21138;-76
2021/03/11 13:34:41;;;;;;;43.92;26.30;;;;;;;2.49;67.58;99102.57;2097756;83;21197;-75
2021/03/11 13:37:42;;;;;;;42.65;25.60;;;;;;;2.46;67.70;99090.58;2100024;83;21211;-75
2021/03/11 13:40:44;;;;;;;45.15;25.62;;;;;;;2.47;67.73;99095.33;2096455;83;21185;-75
2021/03/11 13:43:46;;;;;;;44.48;22.67;;;;;;;2.45;68.31;99096.80;2100140;83;21626;-77
2021/03/11 13:46:47;;;;;;;39.35;23.80;;;;;;;2.43;69.11;99096.59;2098416;83;21161;-76
2021/03/11 13:49:50;;;;;;;40.78;24.07;;;;;;;2.41;69.49;99103.75;2093815;83;21573;-76
2021/03/11 13:52:54;;;;;;;42.62;25.35;;;;;;;2.39;69.83;99084.73;2098856;83;21145;-75
2021/03/11 13:55:55;;;;;;;43.20;25.88;;;;;;;2.38;71.00;99083.09;2095007;83;21108;-76
2021/03/11 13:58:57;;;;;;;42.73;24.12;;;;;;;2.37;71.77;99080.95;2099667;83;21177;-75
2021/03/11 14:01:58;;;;;;;37.70;21.35;;;;;;;2.35;72.84;99065.05;2095685;83;21088;-76
2021/03/11 14:04:59;;;;;;;36.50;22.70;;;;;;;2.37;73.09;99046.10;2095485;83;21138;-76
2021/03/11 14:08:01;;;;;;;38.85;23.57;;;;;;;2.37;73.04;99033.83;2095817;83;21190;-76
2021/03/11 14:11:03;;;;;;;41.73;23.87;;;;;;;2.40;73.83;99033.55;2096580;83;21103;-76
2021/03/11 14:14:05;;;;;;;37.60;22.58;;;;;;;2.39;74.47;99030.59;2095445;84;21209;-76
2021/03/11 14:17:06;;;;;;;39.58;22.10;;;;;;;2.39;74.88;99037.59;2102549;83;21586;-76
2021/03/11 14:20:08;;;;;;;40.98;21.62;;;;;;;2.36;74.94;99028.23;2102014;83;21565;-75
2021/03/11 14:23:10;;;;;;;40.05;23.32;;;;;;;2.36;75.42;99031.34;2096240;83;21248;-77
2021/03/11 14:26:12;;;;;;;39.53;22.00;;;;;;;2.37;75.47;99029.91;2096128;83;21175;-77